Time;durP1;ratioP1;P1;durP2;ratioP2;P2;SDS_P1;SDS_P2;PMS_P1;PMS_P2;Temp;Humidity;BMP_temperature;BMP_pressure;BME280_temperature;BME280_humidity;BME280_pressure;Samples;Min_cycle;Max_cycle;Signal;HPM_P1;HPM_P2
2023/07/07 00:01:49;;;;;;;7.28;5.25;;;14.10;99.90;;;;;;5076830;28;20358;-69
2023/07/07 00:04:15;;;;;;;6.50;4.65;;;14.10;99.90;;;;;;5077223;28;20048;-69
2023/07/07 00:06:40;;;;;;;7.72;4.68;;;14.10;99.90;;;;;;5077124;28;20024;-70
2023/07/07 00:09:06;;;;;;;8.38;4.55;;;14.10;99.90;;;;;;5075332;28;20127;-69
2023/07/07 00:11:32;;;;;;;11.40;5.30;;;14.10;99.90;;;;;;5076887;28;20074;-69
2023/07/07 00:13:57;;;;;;;9.45;4.65;;;14.00;99.90;;;;;;5076873;28;20465;-70
2023/07/07 00:16:27;;;;;;;6.45;4.88;;;14.00;99.90;;;;;;5075547;28;20031;-69
2023/07/07 00:18:53;;;;;;;6.65;4.75;;;14.00;99.90;;;;;;5076832;28;20108;-70
2023/07/07 00:21:24;;;;;;;7.80;4.60;;;14.00;99.90;;;;;;5075981;28;20032;-69
2023/07/07 00:23:56;;;;;;;6.28;4.53;;;14.00;99.90;;;;;;5076900;28;20023;-69
2023/07/07 00:26:23;;;;;;;6.53;5.07;;;14.00;99.90;;;;;;5077001;28;20081;-70
2023/07/07 00:28:49;;;;;;;5.65;4.72;;;14.00;99.90;;;;;;5076615;28;20130;-69
2023/07/07 00:31:16;;;;;;;5.78;4.38;;;14.00;99.90;;;;;;5076560;28;20024;-70
2023/07/07 00:33:42;;;;;;;8.45;4.57;;;14.00;99.90;;;;;;5075258;28;20020;-69
2023/07/07 00:36:07;;;;;;;9.23;5.00;;;14.00;99.90;;;;;;5075193;28;20082;-69
2023/07/07 00:38:33;;;;;;;13.27;5.13;;;13.90;99.90;;;;;;5076515;28;20078;-69
2023/07/07 00:41:04;;;;;;;8.02;5.35;;;13.90;99.90;;;;;;5074682;28;20024;-70
2023/07/07 00:43:30;;;;;;;7.10;4.68;;;13.90;99.90;;;;;;5075004;28;20371;-69
2023/07/07 00:45:56;;;;;;;15.75;5.47;;;13.90;99.90;;;;;;5075020;28;20032;-70
2023/07/07 00:48:29;;;;;;;6.82;4.93;;;13.90;99.90;;;;;;5076327;28;20388;-70
2023/07/07 00:51:00;;;;;;;7.53;4.45;;;13.80;99.90;;;;;;5074786;28;20576;-70
2023/07/07 00:53:26;;;;;;;7.57;4.38;;;13.80;99.90;;;;;;5076267;28;20039;-70
2023/07/07 00:55:57;;;;;;;9.35;4.90;;;13.80;99.90;;;;;;5075927;28;20416;-70
2023/07/07 00:58:24;;;;;;;6.60;4.85;;;13.70;99.90;;;;;;5076221;28;20028;-70
2023/07/07 01:01:05;;;;;;;7.53;4.45;;;13.70;99.90;;;;;;5074496;28;20059;-70
2023/07/07 01:03:42;;;;;;;6.68;4.78;;;13.70;99.90;;;;;;5075314;28;20035;-69
2023/07/07 01:06:12;;;;;;;7.63;4.57;;;13.70;99.90;;;;;;5075709;28;20569;-70
2023/07/07 01:08:40;;;;;;;7.63;4.75;;;13.70;99.90;;;;;;5074531;28;20036;-70
2023/07/07 01:11:07;;;;;;;5.80;4.38;;;13.60;99.90;;;;;;5074810;28;20439;-70
2023/07/07 01:13:33;;;;;;;7.57;4.45;;;13.60;99.90;;;;;;5075814;28;20081;-69
2023/07/07 01:16:28;;;;;;;6.78;4.90;;;13.60;99.90;;;;;;5074413;28;20107;-70
2023/07/07 01:19:15;;;;;;;8.77;4.57;;;13.60;99.90;;;;;;5057361;28;20028;-70
2023/07/07 01:21:52;;;;;;;9.25;4.80;;;13.50;99.90;;;;;;5076288;28;20352;-70
2023/07/07 01:24:35;;;;;;;6.45;4.72;;;13.50;99.90;;;;;;5074327;28;20460;-70
2023/07/07 01:27:20;;;;;;;7.85;4.90;;;13.60;99.90;;;;;;5074347;28;20029;-70
2023/07/07 01:29:57;;;;;;;6.72;4.13;;;13.60;99.90;;;;;;5076015;28;20020;-69
2023/07/07 01:32:29;;;;;;;6.72;4.70;;;13.60;99.90;;;;;;5075798;28;20545;-69
2023/07/07 01:35:00;;;;;;;5.85;4.45;;;13.60;99.90;;;;;;5075558;28;20029;-69
2023/07/07 01:37:25;;;;;;;6.85;4.60;;;13.60;99.90;;;;;;5075362;28;20085;-69
2023/07/07 01:39:53;;;;;;;7.00;4.80;;;13.70;99.90;;;;;;5075470;28;20107;-69
2023/07/07 01:42:49;;;;;;;8.13;5.10;;;13.70;99.90;;;;;;5075546;28;20103;-69
2023/07/07 01:45:23;;;;;;;6.65;4.20;;;13.70;99.90;;;;;;5075572;28;20040;-70
2023/07/07 01:47:57;;;;;;;6.95;4.28;;;13.80;99.90;;;;;;5073999;28;20511;-70
2023/07/07 01:50:27;;;;;;;8.25;4.35;;;13.80;99.90;;;;;;5073754;28;20061;-70
2023/07/07 01:53:03;;;;;;;4.68;3.97;;;13.80;99.90;;;;;;5074613;28;20051;-70
2023/07/07 01:55:36;;;;;;;7.13;4.70;;;13.80;99.90;;;;;;5073787;28;20032;-70
2023/07/07 01:58:05;;;;;;;6.78;4.18;;;13.80;99.90;;;;;;5073681;28;20029;-71
2023/07/07 02:00:31;;;;;;;7.78;4.25;;;13.80;99.90;;;;;;5075184;28;20029;-70
2023/07/07 02:02:58;;;;;;;6.30;4.60;;;13.80;99.90;;;;;;5073546;28;20035;-69
2023/07/07 02:05:25;;;;;;;7.75;4.35;;;13.80;99.90;;;;;;5073468;28;20024;-70
2023/07/07 02:07:51;;;;;;;4.68;3.97;;;13.70;99.90;;;;;;5074675;28;20047;-70
2023/07/07 02:10:17;;;;;;;9.07;4.40;;;13.70;99.90;;;;;;5074715;28;20095;-70
2023/07/07 02:12:43;;;;;;;5.57;4.32;;;13.60;99.90;;;;;;5074635;28;20028;-71
2023/07/07 02:15:09;;;;;;;8.40;4.35;;;13.60;99.90;;;;;;5074611;28;20032;-70
2023/07/07 02:17:34;;;;;;;10.88;4.78;;;13.60;99.90;;;;;;5075007;28;20063;-69
2023/07/07 02:20:00;;;;;;;6.05;4.18;;;13.50;99.90;;;;;;5073279;28;20028;-69
2023/07/07 02:22:27;;;;;;;8.27;4.80;;;13.50;99.90;;;;;;5074420;28;20029;-69
2023/07/07 02:24:52;;;;;;;6.32;3.78;;;13.50;99.90;;;;;;5073111;28;20029;-69
2023/07/07 02:27:18;;;;;;;7.38;4.35;;;13.50;99.90;;;;;;5072988;28;20089;-69
2023/07/07 02:29:44;;;;;;;8.07;4.75;;;13.50;99.90;;;;;;5073069;28;20032;-69
2023/07/07 02:32:10;;;;;;;6.80;4.32;;;13.50;99.90;;;;;;5074259;28;20060;-70
2023/07/07 02:34:36;;;;;;;7.38;4.75;;;13.50;99.90;;;;;;5074479;28;20035;-69
2023/07/07 02:37:02;;;;;;;8.05;4.57;;;13.50;99.90;;;;;;5074058;28;20389;-69
2023/07/07 02:39:27;;;;;;;10.05;3.97;;;13.40;99.90;;;;;;5074228;28;20024;-70
2023/07/07 02:41:53;;;;;;;7.82;4.40;;;13.40;99.90;;;;;;5074396;28;20032;-69
2023/07/07 02:44:19;;;;;;;6.53;4.50;;;13.40;99.90;;;;;;5072806;28;20464;-69
2023/07/07 02:46:45;;;;;;;8.75;4.25;;;13.40;99.90;;;;;;5073117;28;20060;-69
2023/07/07 02:49:11;;;;;;;6.50;4.38;;;13.30;99.90;;;;;;5073034;28;20460;-69
2023/07/07 02:51:37;;;;;;;6.78;4.38;;;13.30;99.90;;;;;;5072519;28;20056;-69
2023/07/07 02:54:03;;;;;;;6.93;4.50;;;13.30;99.90;;;;;;5073975;28;20035;-69
2023/07/07 02:56:28;;;;;;;6.75;4.32;;;13.20;99.90;;;;;;5073963;28;20036;-69
2023/07/07 02:58:54;;;;;;;14.73;4.82;;;13.20;99.90;;;;;;5073561;28;20464;-69
2023/07/07 03:01:21;;;;;;;5.65;4.18;;;13.20;99.90;;;;;;5072578;28;20025;-69
2023/07/07 03:03:51;;;;;;;9.93;4.63;;;13.20;99.90;;;;;;5073776;28;20032;-69
2023/07/07 03:06:22;;;;;;;7.43;4.65;;;13.20;99.90;;;;;;5071836;28;20480;-69
2023/07/07 03:08:48;;;;;;;9.02;4.50;;;13.20;99.90;;;;;;5073728;28;20047;-69
2023/07/07 03:11:16;;;;;;;6.28;4.25;;;13.10;99.90;;;;;;5072431;28;20464;-69
2023/07/07 03:13:44;;;;;;;7.90;4.80;;;13.10;99.90;;;;;;5073782;28;20020;-69
2023/07/07 03:16:22;;;;;;;7.07;4.43;;;13.10;99.90;;;;;;5072455;28;20028;-69
2023/07/07 03:18:50;;;;;;;5.82;4.15;;;13.10;99.90;;;;;;5072988;28;20093;-69
2023/07/07 03:21:18;;;;;;;12.77;4.65;;;13.10;99.90;;;;;;5072395;28;20460;-69
2023/07/07 03:23:44;;;;;;;8.93;4.68;;;13.10;99.90;;;;;;5072604;28;20028;-69
2023/07/07 03:26:12;;;;;;;6.82;4.45;;;13.10;99.90;;;;;;5073592;28;20051;-69
2023/07/07 03:28:38;;;;;;;8.15;4.47;;;13.10;99.90;;;;;;5073493;28;20094;-69
2023/07/07 03:31:12;;;;;;;6.32;4.35;;;13.10;99.90;;;;;;5073844;28;20032;-69
2023/07/07 03:33:39;;;;;;;11.27;4.43;;;13.10;99.90;;;;;;5073570;28;20032;-69
2023/07/07 03:36:06;;;;;;;6.60;4.40;;;13.10;99.90;;;;;;5073560;28;20028;-69
2023/07/07 03:38:31;;;;;;;7.40;4.63;;;13.10;99.90;;;;;;5072885;28;20035;-69
2023/07/07 03:40:57;;;;;;;7.25;4.40;;;13.20;99.90;;;;;;5073141;28;20033;-69
2023/07/07 03:43:22;;;;;;;6.88;4.35;;;13.20;99.90;;;;;;5073354;28;20024;-69
2023/07/07 03:45:48;;;;;;;7.55;4.68;;;13.30;99.90;;;;;;5072305;28;20031;-69
2023/07/07 03:48:14;;;;;;;8.80;4.45;;;13.30;99.90;;;;;;5073024;28;20112;-69
2023/07/07 03:50:39;;;;;;;9.77;5.32;;;13.30;99.90;;;;;;5072055;28;20055;-70
2023/07/07 03:53:05;;;;;;;10.00;4.90;;;13.40;99.90;;;;;;5073527;28;20029;-69
2023/07/07 03:55:31;;;;;;;5.10;4.07;;;13.40;99.90;;;;;;5072105;28;20086;-69
2023/07/07 03:57:57;;;;;;;6.60;4.45;;;13.40;99.90;;;;;;5073344;28;20035;-69
2023/07/07 04:00:23;;;;;;;5.68;4.03;;;13.40;99.90;;;;;;5072022;28;20127;-69
2023/07/07 04:02:50;;;;;;;6.32;4.43;;;13.50;99.90;;;;;;5073138;28;20044;-69
2023/07/07 04:05:15;;;;;;;5.35;3.88;;;13.50;99.90;;;;;;5071972;28;20032;-69
2023/07/07 04:07:41;;;;;;;7.53;4.68;;;13.50;99.90;;;;;;5073379;28;20067;-69
2023/07/07 04:10:08;;;;;;;10.90;5.13;;;13.50;99.90;;;;;;5073226;28;20025;-69
2023/07/07 04:12:34;;;;;;;9.88;4.45;;;13.60;99.90;;;;;;5073067;28;20383;-69
2023/07/07 04:15:00;;;;;;;4.93;3.97;;;13.60;99.90;;;;;;5073176;28;20404;-69
2023/07/07 04:17:26;;;;;;;6.53;4.38;;;13.70;99.90;;;;;;5076570;28;20041;-69
2023/07/07 04:19:53;;;;;;;6.95;3.90;;;13.70;99.90;;;;;;5076824;28;20017;-69
2023/07/07 04:22:19;;;;;;;10.48;5.07;;;13.80;99.90;;;;;;5076503;28;20369;-69
2023/07/07 04:24:44;;;;;;;8.70;4.45;;;13.80;99.90;;;;;;5075166;28;20032;-70
2023/07/07 04:27:10;;;;;;;6.20;4.00;;;13.80;99.90;;;;;;5075412;28;20021;-69
2023/07/07 04:29:36;;;;;;;5.25;4.15;;;13.80;99.90;;;;;;5076665;28;20040;-69
2023/07/07 04:32:03;;;;;;;9.90;4.10;;;13.80;99.90;;;;;;5076819;28;20062;-69
2023/07/07 04:34:30;;;;;;;10.40;4.22;;;13.80;99.90;;;;;;5074893;28;20036;-69
2023/07/07 04:36:56;;;;;;;13.40;4.47;;;13.90;99.90;;;;;;5076499;28;20021;-69
2023/07/07 04:39:21;;;;;;;10.10;4.88;;;13.90;99.90;;;;;;5075073;28;20111;-69
2023/07/07 04:41:50;;;;;;;13.43;4.85;;;14.00;99.90;;;;;;5076389;28;20033;-69
2023/07/07 04:44:16;;;;;;;9.60;4.30;;;14.00;99.90;;;;;;5075146;28;20025;-69
2023/07/07 04:46:42;;;;;;;7.25;4.30;;;;;;;;;;5075107;28;20063;-69
2023/07/07 04:49:08;;;;;;;7.05;4.53;;;14.10;99.90;;;;;;5075955;28;20100;-69
2023/07/07 04:51:39;;;;;;;7.72;4.55;;;14.20;99.90;;;;;;5061399;28;20048;-69
2023/07/07 04:54:06;;;;;;;8.02;3.92;;;14.30;99.90;;;;;;5056266;28;20104;-69
2023/07/07 04:56:34;;;;;;;7.10;4.70;;;14.30;99.90;;;;;;5038205;28;20496;-69
2023/07/07 04:59:01;;;;;;;7.10;4.32;;;14.40;99.90;;;;;;5056088;28;20059;-70
2023/07/07 05:01:29;;;;;;;8.73;4.38;;;14.50;99.90;;;;;;5056307;28;20033;-69
2023/07/07 05:03:58;;;;;;;9.20;4.00;;;14.60;99.90;;;;;;5038329;28;20052;-69
2023/07/07 05:06:25;;;;;;;7.93;4.20;;;14.60;99.90;;;;;;5055940;28;20032;-71
2023/07/07 05:08:51;;;;;;;7.65;4.13;;;14.70;99.90;;;;;;5055751;28;20029;-69
2023/07/07 05:11:19;;;;;;;9.43;4.25;;;14.70;99.90;;;;;;5055868;28;20029;-69
2023/07/07 05:13:49;;;;;;;10.32;4.32;;;14.80;99.90;;;;;;5037964;28;20064;-69
2023/07/07 05:16:21;;;;;;;8.52;4.40;;;14.90;99.90;;;;;;5038410;28;20040;-74
2023/07/07 05:18:47;;;;;;;7.63;4.45;;;15.00;99.90;;;;;;5055934;28;20465;-74
2023/07/07 05:21:15;;;;;;;6.45;4.30;;;15.20;99.90;;;;;;5055641;28;20025;-74
2023/07/07 05:23:41;;;;;;;12.10;4.50;;;15.30;99.90;;;;;;5037324;28;20036;-74
2023/07/07 05:26:07;;;;;;;8.85;4.85;;;15.40;99.90;;;;;;5055555;28;20032;-74
2023/07/07 05:28:33;;;;;;;9.68;4.43;;;15.60;99.90;;;;;;5054348;28;20465;-74
2023/07/07 05:30:59;;;;;;;8.13;4.25;;;15.70;99.90;;;;;;5037548;28;20078;-75
2023/07/07 05:33:25;;;;;;;7.10;3.78;;;15.80;99.90;;;;;;5055446;28;20030;-73
2023/07/07 05:35:53;;;;;;;8.82;4.05;;;15.90;99.90;;;;;;5037460;28;20032;-74
2023/07/07 05:38:25;;;;;;;11.70;4.22;;;16.10;99.90;;;;;;5055332;28;20040;-64
2023/07/07 05:40:51;;;;;;;12.73;4.25;;;16.20;99.90;;;;;;5055294;28;20025;-61
2023/07/07 05:43:18;;;;;;;7.93;4.20;;;16.40;99.90;;;;;;5037314;28;20029;-74
2023/07/07 05:45:44;;;;;;;11.35;5.22;;;16.60;99.90;;;;;;5055357;28;20039;-75
2023/07/07 05:48:11;;;;;;;6.43;3.55;;;16.70;99.90;;;;;;5055256;28;20041;-74
2023/07/07 05:50:43;;;;;;;8.80;3.92;;;16.80;99.90;;;;;;5054772;28;20049;-61
2023/07/07 05:53:12;;;;;;;6.22;4.15;;;17.00;99.90;;;;;;5055203;28;20430;-61
2023/07/07 05:55:39;;;;;;;8.25;3.70;;;17.20;99.90;;;;;;5054737;28;20384;-60
2023/07/07 05:58:05;;;;;;;5.82;3.88;;;17.40;99.90;;;;;;5054960;28;20036;-60
2023/07/07 06:00:34;;;;;;;9.35;4.78;;;17.60;99.90;;;;;;5054418;28;20112;-61
2023/07/07 06:02:59;;;;;;;5.93;3.70;;;17.80;99.90;;;;;;5054966;28;20075;-75
2023/07/07 06:05:26;;;;;;;5.03;4.05;;;18.00;99.90;;;;;;5055048;28;20627;-75
2023/07/07 06:07:53;;;;;;;7.03;3.60;;;18.20;99.90;;;;;;5054733;28;20428;-75
2023/07/07 06:10:22;;;;;;;6.65;3.60;;;18.40;99.90;;;;;;5036816;28;20024;-75
2023/07/07 06:12:48;;;;;;;8.88;4.18;;;18.60;99.90;;;;;;5036830;28;20041;-75
2023/07/07 06:15:14;;;;;;;8.50;3.65;;;18.70;99.90;;;;;;5054595;28;20087;-75
2023/07/07 06:17:40;;;;;;;6.88;4.15;;;18.90;99.90;;;;;;5054631;28;20037;-76
2023/07/07 06:20:06;;;;;;;5.90;3.90;;;19.10;99.90;;;;;;5054524;28;20120;-75
2023/07/07 06:22:32;;;;;;;5.90;3.65;;;19.60;99.90;;;;;;5054638;28;20457;-74
2023/07/07 06:25:00;;;;;;;7.03;3.88;;;20.30;99.90;;;;;;5054486;28;20025;-75
2023/07/07 06:27:26;;;;;;;6.82;3.55;;;20.90;99.90;;;;;;5054226;28;20064;-74
2023/07/07 06:29:52;;;;;;;7.28;3.58;;;21.40;99.90;;;;;;5055090;28;20060;-76
2023/07/07 06:32:18;;;;;;;5.85;4.00;;;21.70;99.90;;;;;;5036321;28;20035;-64
2023/07/07 06:34:43;;;;;;;7.55;3.80;;;22.10;99.90;;;;;;5036223;28;20381;-63
2023/07/07 06:37:09;;;;;;;9.10;3.55;;;22.30;99.90;;;;;;5053894;28;20021;-64
2023/07/07 06:39:34;;;;;;;6.68;3.65;;;22.50;99.90;;;;;;5036210;28;20369;-64
2023/07/07 06:42:01;;;;;;;7.32;3.85;;;22.70;99.90;;;;;;5054251;28;20025;-64
2023/07/07 06:44:27;;;;;;;6.72;4.28;;;22.90;99.90;;;;;;5054074;28;20029;-64
2023/07/07 06:46:52;;;;;;;5.65;4.38;;;23.20;98.10;;;;;;5054138;28;20029;-64
2023/07/07 06:49:18;;;;;;;6.22;3.95;;;23.30;96.20;;;;;;5053872;28;20025;-63
2023/07/07 06:51:44;;;;;;;4.25;3.55;;;23.40;95.80;;;;;;5054012;28;20095;-64
2023/07/07 06:54:10;;;;;;;6.18;3.72;;;23.70;95.40;;;;;;5053900;28;20465;-64
2023/07/07 06:56:36;;;;;;;6.47;3.97;;;24.00;94.20;;;;;;5053960;28;20070;-64
2023/07/07 06:59:03;;;;;;;4.60;3.65;;;24.10;93.50;;;;;;5053849;28;20059;-64
2023/07/07 07:01:29;;;;;;;4.50;3.60;;;24.40;93.00;;;;;;5053548;28;20032;-64
2023/07/07 07:03:55;;;;;;;9.20;3.90;;;24.60;92.60;;;;;;5036073;28;20021;-63
2023/07/07 07:06:21;;;;;;;6.88;4.00;;;24.90;91.40;;;;;;5053840;28;20365;-64
2023/07/07 07:08:46;;;;;;;6.35;3.90;;;25.10;88.30;;;;;;5053961;28;20112;-64
2023/07/07 07:11:14;;;;;;;5.50;3.38;;;25.20;83.30;;;;;;5053896;28;20024;-64
2023/07/07 07:13:40;;;;;;;4.93;3.67;;;25.30;79.90;;;;;;5053659;28;20071;-64
2023/07/07 07:16:06;;;;;;;5.28;3.78;;;25.30;80.40;;;;;;5053652;28;20029;-63
2023/07/07 07:18:31;;;;;;;5.50;3.70;;;25.50;79.00;;;;;;5054081;28;20477;-64
2023/07/07 07:20:57;;;;;;;6.10;3.83;;;25.60;76.60;;;;;;5053616;28;20381;-64
2023/07/07 07:23:22;;;;;;;4.45;3.53;;;25.70;74.50;;;;;;5053740;28;20063;-64
2023/07/07 07:25:48;;;;;;;4.05;3.60;;;26.00;74.30;;;;;;5053518;28;20025;-64
2023/07/07 07:28:15;;;;;;;6.18;3.40;;;26.20;71.90;;;;;;5036073;28;20040;-64
2023/07/07 07:30:41;;;;;;;4.22;3.72;;;26.30;70.90;;;;;;5053157;28;20501;-64
2023/07/07 07:33:12;;;;;;;4.65;3.25;;;26.60;71.60;;;;;;5053444;28;20029;-62
2023/07/07 07:35:38;;;;;;;9.10;4.43;;;26.80;70.20;;;;;;5053497;28;20041;-62
2023/07/07 07:38:04;;;;;;;9.80;3.50;;;26.80;68.10;;;;;;5053268;28;20059;-61
2023/07/07 07:40:29;;;;;;;5.30;3.60;;;26.70;67.80;;;;;;5053702;28;20127;-62
2023/07/07 07:42:55;;;;;;;5.88;3.47;;;26.80;66.40;;;;;;5035594;28;20051;-62
2023/07/07 07:45:22;;;;;;;7.57;3.53;;;27.00;67.50;;;;;;5053341;28;20079;-62
2023/07/07 07:47:48;;;;;;;5.05;3.63;;;27.10;68.70;;;;;;5053283;28;20036;-62
2023/07/07 07:50:16;;;;;;;5.10;2.80;;;27.20;64.90;;;;;;5052981;28;20396;-62
2023/07/07 07:52:42;;;;;;;4.47;3.42;;;27.40;61.70;;;;;;5056860;28;20036;-62
2023/07/07 07:55:08;;;;;;;6.90;3.50;;;27.70;61.70;;;;;;5057261;28;20028;-62
2023/07/07 07:57:34;;;;;;;6.60;3.92;;;27.60;60.40;;;;;;5056939;28;20447;-73
2023/07/07 07:59:59;;;;;;;9.15;3.63;;;27.80;61.10;;;;;;5039235;28;20063;-73
2023/07/07 08:02:25;;;;;;;8.00;3.65;;;28.30;60.80;;;;;;5057129;28;20112;-74
2023/07/07 08:04:51;;;;;;;5.97;3.70;;;28.60;57.50;;;;;;5038874;28;20473;-74
2023/07/07 08:07:16;;;;;;;4.30;3.40;;;28.90;58.50;;;;;;5056526;28;20022;-74
2023/07/07 08:09:42;;;;;;;4.07;3.10;;;29.50;57.90;;;;;;5057310;28;20025;-74
2023/07/07 08:12:09;;;;;;;4.13;3.10;;;29.60;54.00;;;;;;5056652;28;20055;-74
2023/07/07 08:14:35;;;;;;;3.83;2.90;;;29.90;52.70;;;;;;5039059;28;20025;-74
2023/07/07 08:17:10;;;;;;;4.30;2.97;;;29.60;51.50;;;;;;5038935;28;20047;-74
2023/07/07 08:19:38;;;;;;;4.30;2.40;;;29.70;50.50;;;;;;5057272;28;20036;-74
2023/07/07 08:22:07;;;;;;;3.75;2.70;;;30.00;48.80;;;;;;5038827;28;20484;-74
2023/07/07 08:24:46;;;;;;;3.55;2.92;;;30.60;46.70;;;;;;5038765;28;20071;-74
2023/07/07 08:27:13;;;;;;;5.80;3.08;;;30.70;45.60;;;;;;5056509;28;20032;-74
2023/07/07 08:29:40;;;;;;;8.25;3.00;;;31.10;46.70;;;;;;5038710;28;20060;-74
2023/07/07 08:32:06;;;;;;;6.20;2.72;;;31.50;46.30;;;;;;5056665;28;20025;-74
2023/07/07 08:34:32;;;;;;;3.58;3.28;;;31.70;42.60;;;;;;5056125;28;20033;-74
2023/07/07 08:36:59;;;;;;;5.68;2.60;;;31.20;43.10;;;;;;5056054;28;20021;-74
2023/07/07 08:39:28;;;;;;;3.40;2.67;;;30.90;44.10;;;;;;5056389;28;20031;-74
2023/07/07 08:42:02;;;;;;;4.78;2.63;;;31.50;43.30;;;;;;5056402;28;20024;-74
2023/07/07 08:44:31;;;;;;;4.47;2.50;;;31.30;41.60;;;;;;5056446;28;20104;-76
2023/07/07 08:47:12;;;;;;;3.47;2.45;;;31.30;43.30;;;;;;5055983;28;20423;-74
2023/07/07 08:49:47;;;;;;;4.65;2.67;;;31.50;42.20;;;;;;5038311;28;20116;-74
2023/07/07 08:52:29;;;;;;;2.70;2.50;;;31.80;43.00;;;;;;5055658;28;20041;-74
2023/07/07 08:55:21;;;;;;;6.60;3.10;;;32.20;43.20;;;;;;5055861;28;20029;-74
2023/07/07 08:57:55;;;;;;;3.03;2.53;;;32.10;42.30;;;;;;5000850;28;20075;-74
2023/07/07 09:00:47;;;;;;;5.30;3.17;;;32.20;42.00;;;;;;5056100;28;20025;-74
2023/07/07 09:03:31;;;;;;;4.82;3.10;;;32.40;41.90;;;;;;5036645;28;20026;-74
2023/07/07 09:06:08;;;;;;;4.68;2.65;;;32.60;41.20;;;;;;5038162;28;20025;-74
2023/07/07 09:08:52;;;;;;;4.22;2.83;;;32.90;41.00;;;;;;5055726;28;20483;-74
2023/07/07 09:11:32;;;;;;;4.80;3.20;;;33.10;41.10;;;;;;5037898;28;20488;-74
2023/07/07 09:13:59;;;;;;;4.15;3.00;;;33.30;41.00;;;;;;5055800;28;20468;-74
2023/07/07 09:16:36;;;;;;;7.13;3.17;;;33.00;41.10;;;;;;5037568;28;20056;-74
2023/07/07 09:19:16;;;;;;;6.47;3.10;;;33.10;39.00;;;;;;5055741;28;20025;-74
2023/07/07 09:21:53;;;;;;;8.30;3.35;;;33.20;40.50;;;;;;5055734;28;20029;-74
2023/07/07 09:24:47;;;;;;;10.97;3.23;;;32.70;39.60;;;;;;5037734;28;20461;-74
2023/07/07 09:27:28;;;;;;;4.80;2.45;;;33.10;39.70;;;;;;5037504;28;20024;-74
2023/07/07 09:30:07;;;;;;;6.80;2.92;;;33.50;39.90;;;;;;5055567;28;20115;-74
2023/07/07 09:32:32;;;;;;;2.22;2.03;;;33.90;38.50;;;;;;5055769;28;20453;-74
2023/07/07 09:34:58;;;;;;;4.50;2.70;;;33.70;38.30;;;;;;5037502;28;20070;-74
2023/07/07 09:37:37;;;;;;;4.82;2.72;;;33.60;38.50;;;;;;5037508;28;20032;-74
2023/07/07 09:40:36;;;;;;;5.95;2.45;;;33.80;38.10;;;;;;5055566;28;20291;-74
2023/07/07 09:43:20;;;;;;;3.97;2.60;;;33.90;38.30;;;;;;5055723;28;20025;-74
2023/07/07 09:46:21;;;;;;;3.10;2.20;;;34.30;38.00;;;;;;5055211;28;20025;-74
2023/07/07 09:49:05;;;;;;;2.95;2.28;;;34.40;36.60;;;;;;5037362;28;20040;-75
2023/07/07 09:51:45;;;;;;;4.57;2.47;;;34.00;35.90;;;;;;5054878;28;20115;-74
2023/07/07 09:54:13;;;;;;;2.40;2.20;;;33.50;37.30;;;;;;5055221;28;20021;-75
2023/07/07 09:56:49;;;;;;;5.32;2.75;;;33.40;37.90;;;;;;5054832;28;20116;-74
2023/07/07 09:59:20;;;;;;;3.20;2.40;;;33.20;37.50;;;;;;5055017;28;20047;-74
2023/07/07 10:01:50;;;;;;;4.13;2.35;;;33.40;37.80;;;;;;5055053;28;20036;-74
2023/07/07 10:04:16;;;;;;;3.72;2.75;;;33.60;38.00;;;;;;5055081;28;20036;-74
2023/07/07 10:07:06;;;;;;;5.65;2.80;;;34.20;37.80;;;;;;5036936;28;20029;-74
2023/07/07 10:09:33;;;;;;;4.18;2.38;;;34.90;37.30;;;;;;5054807;28;20033;-74
2023/07/07 10:11:59;;;;;;;2.90;2.25;;;34.50;36.30;;;;;;5054726;28;20025;-75
2023/07/07 10:14:28;;;;;;;3.58;2.63;;;34.40;36.80;;;;;;5054354;28;20025;-75
2023/07/07 10:17:09;;;;;;;5.03;2.67;;;34.40;36.70;;;;;;5037095;28;20453;-75
2023/07/07 10:19:50;;;;;;;2.97;2.33;;;34.40;36.50;;;;;;5054225;28;20044;-74
2023/07/07 10:22:16;;;;;;;4.32;2.60;;;35.00;36.50;;;;;;5036734;28;20429;-74
2023/07/07 10:24:43;;;;;;;2.95;2.28;;;35.00;35.90;;;;;;5036247;28;20060;-75
2023/07/07 10:27:16;;;;;;;2.38;2.10;;;34.40;36.10;;;;;;5036619;28;20060;-74
2023/07/07 10:29:43;;;;;;;5.45;2.20;;;34.30;35.50;;;;;;5054432;28;20041;-74
2023/07/07 10:32:17;;;;;;;2.43;2.20;;;34.80;35.80;;;;;;5054317;28;20035;-74
2023/07/07 10:34:49;;;;;;;2.72;2.10;;;35.20;34.70;;;;;;5054397;28;20600;-74
2023/07/07 10:37:21;;;;;;;4.47;2.50;;;34.80;35.10;;;;;;5036500;28;20056;-74
2023/07/07 10:39:57;;;;;;;2.88;2.10;;;34.70;36.20;;;;;;5053931;28;20120;-74
2023/07/07 10:42:25;;;;;;;4.55;2.45;;;35.10;34.30;;;;;;5036253;28;20094;-74
2023/07/07 10:44:55;;;;;;;3.17;2.50;;;34.70;34.20;;;;;;5054095;28;20021;-74
2023/07/07 10:47:25;;;;;;;2.65;2.13;;;34.70;34.70;;;;;;5054153;28;20033;-74
2023/07/07 10:49:51;;;;;;;2.10;1.90;;;34.70;35.00;;;;;;5035942;28;20051;-74
2023/07/07 10:52:55;;;;;;;2.45;2.22;;;34.80;34.70;;;;;;5036010;28;20024;-74
2023/07/07 10:55:39;;;;;;;4.47;2.47;;;35.40;35.10;;;;;;5036225;28;20086;-74
2023/07/07 10:58:16;;;;;;;3.42;2.60;;;34.80;35.30;;;;;;5053541;28;20040;-75
2023/07/07 11:01:02;;;;;;;4.35;2.78;;;34.10;35.00;;;;;;5054307;28;20371;-75
2023/07/07 11:03:30;;;;;;;4.05;2.58;;;34.20;36.30;;;;;;5035923;28;20029;-75
2023/07/07 11:06:16;;;;;;;;;;;34.80;34.80;;;;;;5036372;28;20120;-74
2023/07/07 11:09:03;;;;;;;2.60;2.40;;;35.30;35.80;;;;;;5035835;28;19939;-75
2023/07/07 11:11:54;;;;;;;3.50;2.22;;;36.20;34.60;;;;;;5035789;28;20056;-74
2023/07/07 11:14:42;;;;;;;3.15;2.22;;;36.40;33.20;;;;;;5053177;28;20110;-75
2023/07/07 11:17:17;;;;;;;3.97;2.42;;;37.30;33.30;;;;;;5053635;28;20040;-74
2023/07/07 11:19:45;;;;;;;2.30;2.15;;;37.90;31.70;;;;;;5035666;28;20512;-74
2023/07/07 11:22:35;;;;;;;2.75;2.55;;;38.00;30.50;;;;;;5035585;28;20025;-74
2023/07/07 11:25:19;;;;;;;2.58;2.38;;;37.00;31.50;;;;;;5053276;28;20098;-75
2023/07/07 11:27:57;;;;;;;4.10;2.60;;;36.40;31.40;;;;;;5053336;28;20040;-74
2023/07/07 11:30:26;;;;;;;2.40;2.20;;;35.10;33.20;;;;;;5035965;28;20057;-74
2023/07/07 11:33:39;;;;;;;3.17;2.92;;;34.00;33.30;;;;;;5036069;28;20033;-74
2023/07/07 11:36:05;;;;;;;4.63;2.30;;;33.30;34.70;;;;;;4998432;28;20037;-74
2023/07/07 11:38:58;;;;;;;4.22;2.33;;;32.60;35.20;;;;;;5053408;28;20484;-74
2023/07/07 11:42:07;;;;;;;5.25;2.33;;;32.40;35.50;;;;;;5053258;28;20025;-75
2023/07/07 11:44:44;;;;;;;2.42;2.08;;;33.30;35.00;;;;;;5001225;28;20077;-74
2023/07/07 11:47:37;;;;;;;5.70;2.33;;;34.90;34.00;;;;;;5035125;28;20025;-75
2023/07/07 11:50:27;;;;;;;8.10;2.40;;;35.90;32.70;;;;;;5053291;28;20294;-74
2023/07/07 11:53:19;;;;;;;3.22;2.40;;;36.60;31.10;;;;;;5053767;28;20036;-74
2023/07/07 11:55:56;;;;;;;4.20;2.10;;;36.30;30.80;;;;;;5035844;28;20079;-74
2023/07/07 11:58:39;;;;;;;2.78;2.33;;;36.40;30.30;;;;;;5053253;28;20033;-74
2023/07/07 12:01:13;;;;;;;2.35;2.15;;;36.60;31.60;;;;;;5053503;28;20036;-74
2023/07/07 12:03:44;;;;;;;3.80;2.17;;;35.90;31.70;;;;;;5053234;28;20465;-74
2023/07/07 12:06:21;;;;;;;2.00;1.90;;;36.00;31.80;;;;;;5053191;28;20465;-74
2023/07/07 12:09:04;;;;;;;2.40;1.93;;;35.00;32.20;;;;;;5053067;28;20033;-74
2023/07/07 12:11:35;;;;;;;5.95;2.13;;;34.00;33.30;;;;;;5035595;28;20411;-74
2023/07/07 12:14:19;;;;;;;2.47;2.25;;;32.70;34.10;;;;;;5035400;28;20485;-74
2023/07/07 12:16:48;;;;;;;2.67;2.17;;;33.80;34.90;;;;;;5053224;28;20025;-74
2023/07/07 12:19:39;;;;;;;2.85;2.28;;;34.60;33.30;;;;;;5052654;28;20112;-74
2023/07/07 12:22:15;;;;;;;2.30;1.75;;;35.30;33.10;;;;;;5052990;28;20029;-74
2023/07/07 12:24:56;;;;;;;3.05;2.00;;;35.90;31.40;;;;;;5052978;28;20036;-74
2023/07/07 12:27:27;;;;;;;3.58;2.35;;;36.70;31.30;;;;;;5030955;28;20497;-74
2023/07/07 12:29:54;;;;;;;2.28;2.10;;;37.00;30.80;;;;;;5030842;28;20080;-74
2023/07/07 12:32:19;;;;;;;5.70;3.22;;;36.40;30.90;;;;;;5030681;28;20042;-74
2023/07/07 12:35:01;;;;;;;4.97;2.08;;;36.60;31.60;;;;;;5030659;28;20418;-73
2023/07/07 12:37:27;;;;;;;3.17;2.25;;;35.20;31.20;;;;;;5032225;28;20087;-74
2023/07/07 12:39:52;;;;;;;4.90;2.33;;;35.00;32.50;;;;;;5017662;28;20119;-73
2023/07/07 12:42:18;;;;;;;2.72;2.47;;;34.60;33.90;;;;;;5034221;28;20107;-73
2023/07/07 12:44:45;;;;;;;5.28;2.28;;;33.80;33.10;;;;;;5034353;28;20107;-74
2023/07/07 12:47:40;;;;;;;3.20;2.35;;;33.90;33.30;;;;;;5033970;28;20034;-74
2023/07/07 12:50:28;;;;;;;2.90;2.15;;;34.50;32.30;;;;;;5031763;28;20046;-73
2023/07/07 12:53:03;;;;;;;3.63;2.13;;;34.10;33.80;;;;;;5033826;28;20080;-74
2023/07/07 12:55:30;;;;;;;2.25;1.80;;;32.80;34.30;;;;;;5015549;28;20029;-73
2023/07/07 12:58:07;;;;;;;3.75;2.38;;;32.50;35.10;;;;;;5030394;28;20032;-74
2023/07/07 13:00:38;;;;;;;3.53;2.10;;;33.50;33.90;;;;;;5041606;28;20537;-74
2023/07/07 13:03:09;;;;;;;5.63;2.20;;;34.80;32.10;;;;;;5056222;28;20457;-74
2023/07/07 13:05:44;;;;;;;2.83;2.20;;;35.20;32.00;;;;;;5056217;28;20021;-74